Latest Weather Observations for Lockhart River

IDQ60801

Issued at 5:32 pm EST Tuesday 28 February 2017 (issued every 30 minutes, with the page automatically refreshed every 10 minutes)

About weather observations | Map of weather stations | Latest weather observations for QLD | Other Formats
Station Details ID: 028008 Name: LOCKHART RIVER AIRPORT Lat: -12.79 Lon: 143.30 Height: 18.5 m
Data from the previous 72 hours. | See also: Recent months at Lockhart River
Date/Time
EST
Temp
°C
App
Temp
°C
Dew
Point
°C
Rel
Hum
%
Delta-T
°C
Wind Press
QNH
hPa
Press
MSL
hPa
Rain since
9am
mm
Dir  Spd
km/h
Gust
km/h
Spd
kts
Gust
kts
28/05:00pm 24.1 27.5 24.1 100 0.0 SSE 13 17 7 9 1007.8 1007.7 20.6
28/04:30pm 25.1 28.2 23.5 91 1.1 SSE 13 20 7 11 1007.5 1007.4 19.0
28/04:26pm 25.5 28.3 23.0 86 1.7 ESE 13 20 7 11 1007.5 1007.4 18.6
28/04:00pm 26.7 30.3 24.4 87 1.6 NE 13 20 7 11 1007.0 1006.9 18.4
28/03:59pm 26.6 30.2 24.3 87 1.6 NE 13 20 7 11 1007.0 1006.9 18.4
28/03:31pm 27.1 31.3 24.7 87 1.7 ESE 11 19 6 10 1007.1 1007.0 18.4
28/03:30pm 27.0 31.1 24.5 86 1.7 ESE 11 17 6 9 1007.0 1006.9 18.4
28/03:27pm 27.2 31.6 25.0 88 1.5 SE 11 17 6 9 1007.0 1006.9 18.4
28/03:00pm 26.6 32.2 24.8 90 1.3 SE 4 9 2 5 1007.3 1007.2 18.4
28/02:30pm 26.0 32.5 25.1 95 0.6 CALM 0 0 0 0 1007.3 1007.2 18.4
28/02:00pm 25.2 31.7 25.0 99 0.1 CALM 0 0 0 0 1007.9 1007.8 18.4
28/01:30pm 24.5 30.6 24.5 100 0.0 CALM 0 7 0 4 1008.3 1008.2 18.4
28/01:16pm 24.1 29.6 24.1 100 0.0 SW 2 9 1 5 1008.5 1008.4 18.4
28/01:11pm 24.3 29.2 24.3 100 0.0 SW 6 11 3 6 1008.5 1008.4 18.4
28/01:00pm 24.2 29.0 24.2 100 0.0 WSW 6 11 3 6 1008.7 1008.6 18.4
28/12:43pm 24.0 29.8 24.0 100 0.0 CALM 0 7 0 4 1009.0 1008.9 18.0
28/12:30pm 23.9 28.4 23.9 100 0.0 E 7 17 4 9 1009.2 1009.1 16.2
28/12:14pm 23.8 23.8 23.1 96 0.5 E 28 46 15 25 1009.7 1009.6 9.2
28/12:13pm 23.7 23.6 22.9 95 0.5 E 28 46 15 25 1009.7 1009.6 8.8
28/12:06pm 24.5 27.6 22.9 91 1.1 ENE 11 46 6 25 1009.7 1009.6 3.0
28/12:00pm 25.9 32.0 24.5 92 1.0 CALM 0 9 0 5 1009.2 1009.1 1.0
28/11:30am 25.6 32.1 25.1 97 0.3 CALM 0 0 0 0 1009.6 1009.5 1.0
28/11:00am 24.9 31.3 24.9 100 0.0 CALM 0 0 0 0 1009.9 1009.8 1.0
28/10:30am 24.2 30.2 24.2 100 0.0 CALM 0 4 0 2 1010.0 1009.9 0.8
28/10:24am 24.2 29.8 24.2 100 0.0 NW 2 9 1 5 1009.8 1009.7 0.6
28/10:00am 24.3 29.2 24.3 100 0.0 NW 6 9 3 5 1009.8 1009.7 0.6
28/09:30am 24.1 30.0 24.1 100 0.0 CALM 0 0 0 0 1010.3 1010.2 0.6
28/09:11am 23.9 29.7 23.9 100 0.0 CALM 0 0 0 0 1010.5 1010.4 0.2
28/09:00am 24.0 29.8 24.0 100 0.0 CALM 0 7 0 4 1010.4 1010.3 47.6
28/08:30am 23.8 29.2 23.8 100 0.0 WNW 2 11 1 6 1010.2 1010.1 46.4
28/08:00am 23.6 27.9 23.6 100 0.0 NNE 7 17 4 9 1010.0 1009.9 41.0
28/07:42am 23.8 29.2 23.8 100 0.0 N 2 13 1 7 1009.8 1009.7 30.8
28/07:30am 23.8 28.8 23.8 100 0.0 NW 4 9 2 5 1009.3 1009.2 30.8
28/07:00am 23.7 28.2 23.7 100 0.0 SSW 6 11 3 6 1009.1 1009.0 30.8
28/06:30am 23.7 29.0 23.7 100 0.0 SSW 2 9 1 5 1008.8 1008.7 30.6
28/06:00am 23.5 28.7 23.5 100 0.0 ESE 2 9 1 5 1008.6 1008.5 29.4
28/05:30am 23.6 28.1 23.6 100 0.0 W 6 9 3 5 1008.4 1008.3 21.0
28/05:26am 23.7 28.0 23.7 100 0.0 WSW 7 11 4 6 1008.5 1008.4 20.8
28/05:00am 24.0 28.1 24.0 100 0.0 SW 9 13 5 7 1008.5 1008.4 19.8
28/04:30am 24.0 28.1 24.0 100 0.0 ENE 9 19 5 10 1008.3 1008.2 19.6
28/04:23am 24.2 27.6 24.0 99 0.1 ESE 13 19 7 10 1008.6 1008.5 17.0
28/04:00am 24.1 28.7 23.8 98 0.2 S 6 13 3 7 1007.7 1007.6 10.2
28/03:30am 24.0 28.1 24.0 100 0.0 ESE 9 15 5 8 1007.7 1007.6 9.2
28/03:00am 24.0 29.8 24.0 100 0.0 CALM 0 0 0 0 1007.7 1007.6 8.4
28/02:30am 24.3 30.3 24.3 100 0.0 CALM 0 0 0 0 1008.4 1008.3 8.4
28/02:01am 24.1 30.0 24.1 100 0.0 CALM 0 0 0 0 1008.5 1008.4 8.4
28/02:00am 24.1 30.0 24.1 100 0.0 CALM 0 0 0 0 1008.5 1008.4 8.4
28/01:48am 24.2 30.2 24.2 100 0.0 CALM 0 0 0 0 1008.6 1008.5 8.4
28/01:30am 24.0 29.8 24.0 100 0.0 CALM 0 0 0 0 1008.7 1008.6 8.4
28/01:00am 24.1 28.9 24.1 100 0.0 W 6 11 3 6 1009.2 1009.1 8.4
28/12:53am 24.4 30.5 24.4 100 0.0 CALM 0 7 0 4 1009.3 1009.2 8.2
28/12:30am 24.2 30.0 24.0 99 0.1 CALM 0 9 0 5 1009.8 1009.7 7.4
28/12:24am 24.3 30.2 24.1 99 0.1 CALM 0 9 0 5 1009.9 1009.8 5.4
28/12:00am 24.6 28.2 24.3 98 0.2 SE 13 20 7 11 1009.8 1009.7 3.4
 
Date/Time
EST
Temp
°C
App
Temp
°C
Dew
Point
°C
Rel
Hum
%
Delta-T
°C
Wind Press
QNH
hPa
Press
MSL
hPa
Rain since
9am
mm
Dir  Spd
km/h
Gust
km/h
Spd
kts
Gust
kts
27/11:30pm 24.3 28.6 23.6 96 0.5 S 7 13 4 7 1009.6 1009.5 3.2
27/11:00pm 24.8 30.6 24.6 99 0.1 S 2 11 1 6 1009.7 1009.6 3.2
27/10:30pm 24.6 30.6 24.3 98 0.2 CALM 0 0 0 0 1009.4 1009.3 0.0
27/10:00pm 24.9 30.9 24.2 96 0.5 CALM 0 0 0 0 1009.5 1009.4 0.0
27/09:30pm 25.1 31.2 24.4 96 0.5 CALM 0 0 0 0 1009.1 1009.0 0.0
27/09:00pm 25.7 31.7 24.3 92 1.0 CALM 0 0 0 0 1008.9 1008.8 0.0
27/08:30pm 26.1 31.9 24.0 88 1.4 CALM 0 0 0 0 1008.8 1008.7 0.0
27/08:00pm 26.3 31.7 23.8 86 1.7 S 2 9 1 5 1008.4 1008.3 0.0
27/07:30pm 26.7 29.8 23.6 83 2.1 SE 13 15 7 8 1008.0 1007.9 0.0
27/07:00pm 26.9 29.8 23.2 80 2.5 SE 13 19 7 10 1007.8 1007.7 0.0
27/06:30pm 27.4 29.3 23.4 79 2.7 SE 19 32 10 17 1007.8 1007.7 0.0
27/06:00pm 28.1 28.9 23.2 74 3.4 SE 24 32 13 17 1007.7 1007.6 0.0
27/05:30pm 28.4 29.3 22.6 71 3.9 SE 22 33 12 18 1007.3 1007.2 0.0
27/05:00pm 28.8 30.3 23.0 71 4.0 ESE 20 30 11 16 1007.0 1006.9 0.0
27/04:30pm 29.1 30.6 23.1 70 4.1 ESE 20 30 11 16 1006.9 1006.8 0.0
27/04:00pm 29.0 31.0 23.9 74 3.5 ESE 20 28 11 15 1006.9 1006.8 0.0
27/03:30pm 29.5 31.2 24.1 72 3.7 ESE 22 33 12 18 1006.8 1006.7 0.0
27/03:00pm 29.5 32.2 24.1 72 3.8 E 17 26 9 14 1007.0 1006.9 0.0
27/02:30pm 29.3 32.1 23.7 72 3.9 ESE 15 22 8 12 1007.4 1007.3 0.0
27/02:00pm 29.0 32.6 23.7 73 3.7 SE 11 17 6 9 1007.8 1007.7 0.0
27/01:30pm 28.9 31.9 24.0 75 3.4 E 15 20 8 11 1008.4 1008.3 0.0
27/01:00pm 28.8 32.1 23.9 75 3.4 ESE 13 19 7 10 1008.9 1008.8 0.0
27/12:30pm 27.9 30.6 23.5 77 3.0 SSE 15 19 8 10 1009.4 1009.3 0.0
27/12:05pm 27.2 30.3 24.1 83 2.1 SE 15 19 8 10 1009.8 1009.7 0.0
27/12:00pm 27.2 29.9 23.4 80 2.6 SE 15 19 8 10 1009.9 1009.8 0.0
27/11:30am 27.6 31.7 24.0 81 2.5 SE 9 17 5 9 1010.2 1010.1 0.0
27/11:00am 26.8 31.2 23.5 82 2.3 SSW 6 11 3 6 1010.3 1010.2 0.0
27/10:46am 26.9 31.5 24.2 85 1.9 SSE 7 13 4 7 1010.4 1010.3 0.0
27/10:30am 26.5 29.6 23.6 84 2.0 SSE 13 19 7 10 1010.7 1010.6 0.0
27/10:17am 26.7 29.0 23.4 82 2.3 SSE 17 22 9 12 1010.8 1010.7 0.0
27/10:00am 26.6 28.5 23.5 83 2.1 SSE 19 24 10 13 1010.9 1010.8 0.0
27/09:51am 26.9 30.3 24.0 84 2.0 S 13 20 7 11 1010.8 1010.7 0.0
27/09:30am 26.2 30.6 24.4 90 1.2 S 9 15 5 8 1010.5 1010.4 0.0
27/09:00am 25.1 29.0 24.2 95 0.6 S 11 15 6 8 1010.6 1010.5 43.8
27/08:52am 25.1 29.5 24.4 96 0.5 SSE 9 15 5 8 1010.7 1010.6 43.8
27/08:30am 24.6 30.8 24.6 100 0.0 CALM 0 7 0 4 1010.6 1010.5 43.8
27/08:00am 23.9 29.7 23.9 100 0.0 CALM 0 0 0 0 1010.4 1010.3 43.8
27/07:30am 23.6 29.2 23.6 100 0.0 CALM 0 0 0 0 1010.3 1010.2 43.6
27/07:04am 23.6 28.8 23.6 100 0.0 N 2 9 1 5 1010.1 1010.0 42.6
27/07:00am 23.7 29.0 23.7 100 0.0 N 2 9 1 5 1010.0 1009.9 42.4
27/06:43am 23.7 29.4 23.7 100 0.0 CALM 0 0 0 0 1010.1 1010.0 41.4
27/06:30am 23.7 29.4 23.7 100 0.0 CALM 0 0 0 0 1010.1 1010.0 40.2
27/06:00am 23.7 29.4 23.7 100 0.0 CALM 0 7 0 4 1010.0 1009.9 37.0
27/05:53am 23.6 28.8 23.6 100 0.0 S 2 9 1 5 1009.9 1009.8 36.6
27/05:30am 23.8 29.5 23.8 100 0.0 CALM 0 7 0 4 1009.7 1009.6 34.6
27/05:12am 23.6 29.2 23.6 100 0.0 CALM 0 0 0 0 1009.4 1009.3 33.8
27/05:00am 23.6 29.2 23.6 100 0.0 CALM 0 0 0 0 1009.2 1009.1 33.4
27/04:30am 23.6 29.2 23.6 100 0.0 CALM 0 0 0 0 1008.7 1008.6 32.4
27/04:00am 23.8 29.5 23.8 100 0.0 CALM 0 7 0 4 1008.4 1008.3 31.2
27/03:50am 23.8 29.5 23.8 100 0.0 CALM 0 0 0 0 1008.5 1008.4 31.2
27/03:30am 24.0 29.8 24.0 100 0.0 CALM 0 7 0 4 1008.5 1008.4 31.2
27/03:19am 23.8 29.5 23.8 100 0.0 CALM 0 0 0 0 1008.6 1008.5 31.0
27/03:00am 23.9 29.3 23.9 100 0.0 WNW 2 9 1 5 1008.8 1008.7 30.8
27/02:58am 24.0 29.5 24.0 100 0.0 W 2 7 1 4 1008.8 1008.7 30.6
27/02:44am 23.8 29.5 23.8 100 0.0 CALM 0 9 0 5 1008.8 1008.7 29.4
27/02:42am 23.7 29.0 23.7 100 0.0 E 2 9 1 5 1008.9 1008.8 29.0
27/02:30am 24.2 29.0 24.2 100 0.0 SSE 6 11 3 6 1009.0 1008.9 28.0
27/02:28am 24.1 28.9 24.1 100 0.0 S 6 11 3 6 1008.9 1008.8 27.8
27/02:00am 24.1 29.2 24.1 100 0.0 WNW 4 13 2 7 1008.7 1008.6 26.8
27/01:30am 24.3 28.2 24.3 100 0.0 SW 11 20 6 11 1009.1 1009.0 22.2
27/01:00am 24.3 28.8 24.0 98 0.2 WNW 7 11 4 6 1009.1 1009.0 16.6
27/12:30am 25.1 30.2 24.6 97 0.3 NW 6 17 3 9 1009.5 1009.4 8.2
27/12:00am 25.1 30.7 24.2 95 0.6 WNW 2 9 1 5 1009.3 1009.2 6.6
 
Date/Time
EST
Temp
°C
App
Temp
°C
Dew
Point
°C
Rel
Hum
%
Delta-T
°C
Wind Press
QNH
hPa
Press
MSL
hPa
Rain since
9am
mm
Dir  Spd
km/h
Gust
km/h
Spd
kts
Gust
kts
26/11:30pm 25.3 31.3 24.3 94 0.7 CALM 0 9 0 5 1009.6 1009.5 6.6
26/11:00pm 25.4 31.2 24.0 92 1.0 CALM 0 0 0 0 1009.9 1009.8 6.6
26/10:30pm 25.7 31.3 23.6 88 1.4 CALM 0 9 0 5 1009.7 1009.6 6.6
26/10:00pm 26.2 32.4 24.6 91 1.1 CALM 0 0 0 0 1009.3 1009.2 6.6
26/09:30pm 26.1 31.5 23.8 87 1.6 S 2 9 1 5 1009.0 1008.9 6.6
26/09:00pm 26.4 31.7 24.4 89 1.4 S 4 11 2 6 1008.7 1008.6 6.6
26/08:30pm 26.6 32.1 24.6 89 1.4 SSW 4 9 2 5 1008.5 1008.4 6.6
26/08:00pm 27.1 33.1 24.9 88 1.5 SSE 2 9 1 5 1008.2 1008.1 6.6
26/07:30pm 27.4 33.4 24.8 86 1.8 SE 2 9 1 5 1007.8 1007.7 6.6
26/07:00pm 27.7 31.3 24.3 82 2.4 SE 13 22 7 12 1007.5 1007.4 6.6
26/06:30pm 27.9 31.1 23.7 78 2.9 ESE 13 19 7 10 1007.0 1006.9 6.6
26/06:00pm 28.4 30.6 23.3 74 3.5 ESE 17 22 9 12 1006.9 1006.8 6.6
26/05:30pm 29.0 31.4 23.7 73 3.7 ESE 17 24 9 13 1006.3 1006.2 6.6
26/05:00pm 29.2 31.5 24.1 74 3.5 ESE 19 30 10 16 1006.0 1005.9 6.6
26/04:30pm 29.5 31.8 24.1 72 3.7 E 19 28 10 15 1006.0 1005.9 6.6
26/04:00pm 29.4 32.9 25.4 79 2.8 ESE 17 24 9 13 1006.2 1006.1 6.6
26/03:30pm 28.5 30.7 24.3 78 2.9 ESE 20 32 11 17 1006.5 1006.4 6.6
26/03:00pm 30.0 33.0 24.6 73 3.8 ESE 17 22 9 12 1006.5 1006.4 6.6
26/02:30pm 29.8 32.2 24.2 72 3.9 ESE 19 30 10 16 1006.5 1006.4 6.6
26/02:00pm 29.8 32.6 25.3 77 3.2 SE 20 26 11 14 1006.9 1006.8 6.6
26/01:30pm 29.1 31.8 24.7 77 3.1 SE 19 26 10 14 1007.2 1007.1 6.6
26/01:05pm 29.5 33.6 25.7 80 2.7 ESE 15 26 8 14 1007.5 1007.4 6.6
26/01:00pm 29.6 33.5 26.0 81 2.6 SE 17 26 9 14 1007.6 1007.5 6.6
26/12:40pm 28.1 30.9 24.9 83 2.2 SE 19 24 10 13 1008.1 1008.0 6.6
26/12:30pm 28.1 32.3 25.9 88 1.6 SE 15 19 8 10 1008.2 1008.1 6.6
26/12:00pm 26.7 33.7 25.8 95 0.6 CALM 0 7 0 4 1008.7 1008.6 6.6
26/11:30am 25.3 30.1 25.1 99 0.1 ESE 9 19 5 10 1009.3 1009.2 6.2
26/11:00am 27.8 32.3 25.8 89 1.4 E 13 19 7 10 1009.3 1009.2 0.0
26/10:30am 28.4 31.4 24.0 77 3.0 SE 15 20 8 11 1009.3 1009.2 0.0
26/10:15am 28.9 32.3 24.0 75 3.4 S 13 19 7 10 1009.2 1009.1 0.0
26/10:00am 28.8 33.3 24.6 78 2.9 SE 9 17 5 9 1009.4 1009.3 0.0
26/09:54am 28.6 32.7 24.6 79 2.8 ESE 11 15 6 8 1009.5 1009.4 0.0
26/09:30am 27.8 31.2 24.6 83 2.2 S 15 19 8 10 1009.6 1009.5 0.0
26/09:00am 27.0 30.1 24.1 84 2.0 S 15 20 8 11 1009.7 1009.6 0.6
26/08:59am 27.0 30.1 24.1 84 2.0 S 15 20 8 11 1009.7 1009.6 0.6
26/08:30am 26.4 31.1 23.9 86 1.7 SSE 6 13 3 7 1009.6 1009.5 0.6
26/08:00am 25.1 30.2 24.1 94 0.7 S 4 11 2 6 1009.3 1009.2 0.6
26/07:30am 24.6 29.4 24.1 97 0.3 SSE 6 11 3 6 1008.9 1008.8 0.6
26/07:00am 24.6 29.9 24.3 98 0.2 SE 4 11 2 6 1008.5 1008.4 0.6
26/06:30am 24.7 30.7 24.2 97 0.3 CALM 0 0 0 0 1008.3 1008.2 0.6
26/06:00am 24.7 29.0 24.2 97 0.3 SE 9 15 5 8 1008.3 1008.2 0.6
26/05:30am 24.9 30.0 24.7 99 0.1 ESE 6 11 3 6 1008.1 1008.0 0.6
26/05:00am 25.0 30.0 24.8 99 0.1 SE 7 11 4 6 1008.2 1008.1 0.6
26/04:30am 24.8 30.0 24.8 100 0.0 SSE 6 15 3 8 1008.1 1008.0 0.6
26/04:00am 24.8 31.1 24.8 100 0.0 CALM 0 0 0 0 1007.8 1007.7 0.6
26/03:30am 24.8 30.8 24.8 100 0.0 SE 2 9 1 5 1007.5 1007.4 0.6
26/03:00am 24.6 30.8 24.6 100 0.0 CALM 0 0 0 0 1007.5 1007.4 0.6
26/02:30am 24.6 30.8 24.6 100 0.0 CALM 0 0 0 0 1007.2 1007.1 0.6
26/02:00am 24.9 31.3 24.9 100 0.0 CALM 0 0 0 0 1007.4 1007.3 0.6
26/01:30am 24.8 31.1 24.8 100 0.0 CALM 0 0 0 0 1007.9 1007.8 0.6
26/01:00am 25.1 31.6 25.1 100 0.0 CALM 0 0 0 0 1008.4 1008.3 0.6
26/12:30am 24.9 31.3 24.9 100 0.0 CALM 0 0 0 0 1008.7 1008.6 0.6
26/12:00am 25.0 31.5 25.0 100 0.0 CALM 0 0 0 0 1009.2 1009.1 0.6
 
Date/Time
EST
Temp
°C
App
Temp
°C
Dew
Point
°C
Rel
Hum
%
Delta-T
°C
Wind Press
QNH
hPa
Press
MSL
hPa
Rain since
9am
mm
Dir  Spd
km/h
Gust
km/h
Spd
kts
Gust
kts
25/11:30pm 25.2 31.8 25.2 100 0.0 CALM 0 0 0 0 1009.6 1009.5 0.6
25/11:00pm 25.1 31.6 25.1 100 0.0 CALM 0 0 0 0 1009.7 1009.6 0.6
25/10:30pm 25.5 32.1 25.3 99 0.1 CALM 0 0 0 0 1009.9 1009.8 0.6
25/10:00pm 25.7 32.5 25.5 99 0.1 CALM 0 0 0 0 1009.6 1009.5 0.6
25/09:30pm 25.8 32.6 25.5 98 0.2 CALM 0 0 0 0 1009.6 1009.5 0.6
25/09:00pm 25.9 32.7 25.6 98 0.2 CALM 0 4 0 2 1009.4 1009.3 0.6
25/08:30pm 26.2 32.3 25.7 97 0.4 WSW 4 9 2 5 1009.3 1009.2 0.6
25/08:00pm 26.4 33.3 25.7 96 0.5 CALM 0 0 0 0 1008.8 1008.7 0.6
25/07:30pm 26.8 33.8 25.8 94 0.7 CALM 0 0 0 0 1008.6 1008.5 0.6
25/07:00pm 26.9 32.7 25.7 93 0.8 N 6 9 3 5 1007.9 1007.8 0.6
25/06:30pm 28.3 35.2 25.7 86 1.8 CALM 0 0 0 0 1007.6 1007.5 0.6
25/06:00pm 28.3 33.7 25.1 83 2.2 NE 6 11 3 6 1007.1 1007.0 0.6

Other Formats:

Comma delimited format used in spreadsheet applications
http://www.bom.gov.au/fwo/IDQ60801/IDQ60801.94186.axf

JavaScript Object Notation format (JSON) in row-major order
http://www.bom.gov.au/fwo/IDQ60801/IDQ60801.94186.json